Patriot, Indiana
Current Conditions -  °F | °C
As of 11:52 PM on Monday 20 Oct 2014 (Local Time) from KCVG Reporting Station
Few Clouds Few Clouds  
Wind Chill: 51°   Ceiling: Unl
Heat Index: 51°   Visibility: 10mi
Dew Point: 47°   Wind: 0mph
Humidity: 86%   Direction: NA
Pressure: 29.91"   Gusts: NA
Location:  38.84°N, 84.83°W
Report Text: KCVG 210352Z 00000KT 10SM FEW070 11/08 A2991 RMK AO2 SLP127 T01060083
Loading
Personal Weather Stations






























Interactive Weather Map New forecast layout! Learn more

10-Day Weather Forecast

Advertisements
Track Severe Weather on mobile